createdAt,value
2023-04-04T00:00:07.977Z,3.10
2023-04-04T00:02:36.058Z,3.15
2023-04-04T00:05:06.429Z,3.13
2023-04-04T00:07:34.511Z,3.07
2023-04-04T00:10:03.527Z,3.07
2023-04-04T00:12:31.478Z,3.05
2023-04-04T00:14:59.760Z,3.07
2023-04-04T00:17:27.966Z,3.09
2023-04-04T00:19:58.047Z,3.00
2023-04-04T00:22:27.365Z,2.99
2023-04-04T00:24:55.178Z,3.00
2023-04-04T00:27:23.471Z,2.97
2023-04-04T00:29:51.720Z,2.98
2023-04-04T00:32:20.387Z,2.94
2023-04-04T00:34:53.371Z,2.91
2023-04-04T00:37:23.675Z,2.90
2023-04-04T00:39:56.162Z,2.86
2023-04-04T00:42:24.168Z,2.85
2023-04-04T00:44:54.738Z,2.92
2023-04-04T00:47:24.272Z,2.90
2023-04-04T00:49:52.509Z,2.86
2023-04-04T00:52:20.815Z,2.85
2023-04-04T00:54:49.028Z,2.85
2023-04-04T00:57:19.837Z,2.84
2023-04-04T00:59:48.631Z,2.83
2023-04-04T01:02:16.561Z,2.81
2023-04-04T01:04:47.211Z,2.77
2023-04-04T01:07:17.351Z,2.77
2023-04-04T01:09:46.600Z,2.77
2023-04-04T01:12:14.830Z,2.75
2023-04-04T01:14:45.312Z,2.76
2023-04-04T01:17:13.430Z,2.77
2023-04-04T01:19:49.070Z,2.73
2023-04-04T01:22:21.548Z,2.74
2023-04-04T01:24:50.714Z,2.76
2023-04-04T01:27:21.386Z,2.73
2023-04-04T01:29:56.473Z,2.73
2023-04-04T01:32:31.964Z,2.73
2023-04-04T01:35:09.675Z,2.72
2023-04-04T01:37:45.538Z,2.69
2023-04-04T01:40:19.757Z,2.73
2023-04-04T01:42:53.388Z,2.71
2023-04-04T01:45:24.290Z,2.69
2023-04-04T01:47:57.075Z,2.68
2023-04-04T01:50:26.169Z,2.69
2023-04-04T01:52:54.135Z,2.70
2023-04-04T01:55:22.590Z,2.68
2023-04-04T01:57:52.744Z,2.65
2023-04-04T02:00:22.986Z,2.64
2023-04-04T02:02:51.371Z,2.62
2023-04-04T02:05:22.200Z,2.62
2023-04-04T02:07:51.374Z,2.58
2023-04-04T02:10:32.129Z,2.59
2023-04-04T02:13:04.787Z,2.58
2023-04-04T02:15:33.430Z,2.53
2023-04-04T02:18:02.262Z,2.51
2023-04-04T02:20:33.226Z,2.54
2023-04-04T02:23:01.415Z,2.50
2023-04-04T02:25:29.685Z,2.52
2023-04-04T02:27:57.805Z,2.54
2023-04-04T02:30:27.427Z,2.56
2023-04-04T02:32:59.383Z,2.54
2023-04-04T02:35:30.462Z,2.53
2023-04-04T02:38:00.987Z,2.51
2023-04-04T02:40:43.260Z,2.45
2023-04-04T02:43:11.772Z,2.38
2023-04-04T02:45:42.418Z,2.37
2023-04-04T02:48:21.740Z,2.40
2023-04-04T02:50:53.133Z,2.37
2023-04-04T02:53:21.687Z,2.32
2023-04-04T02:55:52.054Z,2.33
2023-04-04T02:58:20.383Z,2.32
2023-04-04T03:00:55.150Z,2.31
2023-04-04T03:03:27.351Z,2.31
2023-04-04T03:05:55.950Z,2.27
2023-04-04T03:08:24.342Z,2.24
2023-04-04T03:10:52.302Z,2.27
2023-04-04T03:13:20.215Z,2.25
2023-04-04T03:15:49.236Z,2.17
2023-04-04T03:18:20.495Z,2.16
2023-04-04T03:20:48.372Z,2.16
2023-04-04T03:23:17.887Z,2.12
2023-04-04T03:25:45.894Z,2.09
2023-04-04T03:28:14.601Z,2.06
2023-04-04T03:30:45.782Z,2.06
2023-04-04T03:33:42.788Z,2.02
2023-04-04T03:36:12.436Z,2.00
2023-04-04T03:38:41.064Z,1.97
2023-04-04T03:41:13.450Z,2.00
2023-04-04T03:43:41.710Z,1.95
2023-04-04T03:46:09.858Z,1.93
2023-04-04T03:48:38.245Z,1.90
2023-04-04T03:51:10.626Z,1.94
2023-04-04T03:53:39.815Z,1.94
2023-04-04T03:56:07.693Z,1.93
2023-04-04T03:58:37.523Z,1.94
2023-04-04T04:01:05.759Z,1.92
2023-04-04T04:03:34.512Z,1.89
2023-04-04T04:06:05.663Z,1.82
2023-04-04T04:08:35.870Z,1.86
2023-04-04T04:11:06.932Z,1.83
2023-04-04T04:13:36.281Z,1.84
2023-04-04T04:16:04.775Z,1.78
2023-04-04T04:18:33.755Z,1.75
2023-04-04T04:21:04.006Z,1.73
2023-04-04T04:23:37.357Z,1.70
2023-04-04T04:26:06.571Z,1.70
2023-04-04T04:28:39.647Z,1.69
2023-04-04T04:31:13.454Z,1.68
2023-04-04T04:33:44.772Z,1.64
2023-04-04T04:36:15.544Z,1.59
2023-04-04T04:38:55.516Z,1.63
2023-04-04T04:41:24.611Z,1.64
2023-04-04T04:43:53.562Z,1.63
2023-04-04T04:46:22.508Z,1.65
2023-04-04T04:48:51.441Z,1.65
2023-04-04T04:51:27.427Z,1.67
2023-04-04T04:53:58.575Z,1.65
2023-04-04T04:56:28.435Z,1.68
2023-04-04T04:59:01.497Z,1.68
2023-04-04T05:01:29.400Z,1.65
2023-04-04T05:03:59.123Z,1.67
2023-04-04T05:06:36.534Z,1.68
2023-04-04T05:09:08.800Z,1.71
2023-04-04T05:11:38.860Z,1.75
2023-04-04T05:14:09.417Z,1.74
2023-04-04T05:16:45.117Z,1.69
2023-04-04T05:19:14.362Z,1.73
2023-04-04T05:21:47.472Z,1.80
2023-04-04T05:24:30.491Z,1.81
2023-04-04T05:27:00.288Z,1.84
2023-04-04T05:29:33.776Z,1.89
2023-04-04T05:32:04.270Z,1.93
2023-04-04T05:34:33.489Z,1.94
2023-04-04T05:37:08.123Z,2.01
2023-04-04T05:39:39.489Z,2.03
2023-04-04T05:42:10.681Z,2.08
2023-04-04T05:44:44.911Z,2.16
2023-04-04T05:47:13.474Z,2.20
2023-04-04T05:49:45.856Z,2.24
2023-04-04T05:52:14.242Z,2.28
2023-04-04T05:54:44.236Z,2.43
2023-04-04T05:57:17.579Z,2.47
2023-04-04T05:59:54.860Z,2.47
2023-04-04T06:02:22.871Z,2.50
2023-04-04T06:04:55.580Z,2.50
2023-04-04T06:07:37.985Z,2.58
2023-04-04T06:10:08.805Z,2.63
2023-04-04T06:12:39.499Z,2.74
2023-04-04T06:15:12.278Z,2.82
2023-04-04T06:17:42.555Z,2.80
2023-04-04T06:20:12.193Z,2.86
2023-04-04T06:22:43.438Z,2.96
2023-04-04T06:25:14.857Z,3.06
2023-04-04T06:27:45.882Z,3.14
2023-04-04T06:30:17.042Z,3.18
2023-04-04T06:32:48.316Z,3.22
2023-04-04T06:35:21.022Z,3.30
2023-04-04T06:37:58.836Z,3.29
2023-04-04T06:40:31.532Z,3.36
2023-04-04T06:43:02.196Z,3.54
2023-04-04T06:45:48.234Z,3.63
2023-04-04T06:48:16.489Z,3.65
2023-04-04T06:50:44.587Z,3.70
2023-04-04T06:53:15.558Z,3.75
2023-04-04T06:55:47.460Z,3.82
2023-04-04T06:58:17.426Z,3.88
2023-04-04T07:00:45.530Z,4.02
2023-04-04T07:03:13.734Z,4.04
2023-04-04T07:05:43.990Z,4.08
2023-04-04T07:08:12.412Z,4.13
2023-04-04T07:10:41.385Z,4.18
2023-04-04T07:13:11.151Z,4.27
2023-04-04T07:15:39.396Z,4.29
2023-04-04T07:18:10.613Z,4.38
2023-04-04T07:20:39.041Z,4.47
2023-04-04T07:23:07.258Z,4.56
2023-04-04T07:25:35.122Z,4.65
2023-04-04T07:28:12.457Z,4.73
2023-04-04T07:30:42.987Z,4.81
2023-04-04T07:33:11.470Z,4.89
2023-04-04T07:35:41.664Z,4.94
2023-04-04T07:38:10.539Z,5.03
2023-04-04T07:40:41.122Z,5.07
2023-04-04T07:43:09.301Z,5.11
2023-04-04T07:45:37.530Z,5.15
2023-04-04T07:48:09.919Z,5.22
2023-04-04T07:50:38.020Z,5.29
2023-04-04T07:53:06.552Z,5.32
2023-04-04T07:55:37.003Z,5.42
2023-04-04T07:58:06.526Z,5.42
2023-04-04T08:00:37.900Z,5.48
2023-04-04T08:03:06.255Z,5.56
2023-04-04T08:05:36.006Z,5.57
2023-04-04T08:08:04.318Z,5.66
2023-04-04T08:10:32.655Z,5.61
2023-04-04T08:13:02.089Z,5.66
2023-04-04T08:15:30.915Z,5.73
2023-04-04T08:17:59.952Z,5.76
2023-04-04T08:20:29.142Z,5.83
2023-04-04T08:23:01.401Z,5.91
2023-04-04T08:25:29.515Z,6.04
2023-04-04T08:27:59.275Z,6.19
2023-04-04T08:30:27.387Z,6.33
2023-04-04T08:32:56.032Z,6.43
2023-04-04T08:35:24.065Z,6.45
2023-04-04T08:37:54.185Z,6.28
2023-04-04T08:40:23.934Z,6.37
2023-04-04T08:42:52.954Z,6.45
2023-04-04T08:47:59.024Z,6.46
2023-04-04T08:50:28.697Z,6.49
2023-04-04T08:52:59.287Z,6.63
2023-04-04T08:55:29.792Z,6.76
2023-04-04T08:57:59.759Z,6.83
2023-04-04T09:00:28.305Z,6.96
2023-04-04T09:03:02.323Z,7.07
2023-04-04T09:05:31.561Z,7.17
2023-04-04T09:08:00.209Z,7.21
2023-04-04T09:10:29.980Z,7.27
2023-04-04T09:13:12.354Z,7.26
2023-04-04T09:15:49.268Z,7.35
2023-04-04T09:18:18.052Z,7.37
2023-04-04T09:20:48.068Z,7.34
2023-04-04T09:23:17.553Z,7.41
2023-04-04T09:28:21.594Z,7.75
2023-04-04T09:30:50.821Z,7.86
2023-04-04T09:33:21.812Z,7.94
2023-04-04T09:35:53.348Z,8.03
2023-04-04T09:38:23.151Z,8.12
2023-04-04T09:40:52.870Z,8.14
2023-04-04T09:43:22.382Z,8.19
2023-04-04T09:45:51.703Z,8.17
2023-04-04T09:48:29.157Z,8.15
2023-04-04T09:50:59.174Z,8.10
2023-04-04T09:53:27.649Z,8.24
2023-04-04T09:55:58.861Z,8.27
2023-04-04T09:58:29.029Z,8.32
2023-04-04T10:01:01.037Z,8.48
2023-04-04T10:03:31.736Z,8.56
2023-04-04T10:06:03.787Z,8.71
2023-04-04T10:08:33.654Z,8.79
2023-04-04T10:13:36.660Z,8.80
2023-04-04T10:16:06.557Z,8.88
2023-04-04T10:18:35.873Z,8.94
2023-04-04T10:21:15.134Z,9.01
2023-04-04T10:23:47.159Z,9.09
2023-04-04T10:26:16.725Z,9.11
2023-04-04T10:28:45.791Z,9.15
2023-04-04T10:31:21.419Z,9.23
2023-04-04T10:34:01.773Z,9.23
2023-04-04T10:36:36.060Z,9.36
2023-04-04T10:39:14.610Z,9.43
2023-04-04T10:41:46.003Z,9.44
2023-04-04T10:44:24.621Z,9.49
2023-04-04T10:46:55.495Z,9.46
2023-04-04T10:49:24.152Z,9.57
2023-04-04T10:51:57.243Z,9.69
2023-04-04T10:54:29.034Z,9.76
2023-04-04T10:57:02.106Z,9.80
2023-04-04T10:59:30.310Z,9.75
2023-04-04T11:01:59.767Z,9.76
2023-04-04T11:04:34.783Z,9.82
2023-04-04T11:07:11.618Z,9.88
2023-04-04T11:09:54.116Z,9.93
2023-04-04T11:12:31.360Z,10.04
2023-04-04T11:15:10.223Z,10.12
2023-04-04T11:17:55.497Z,10.19
2023-04-04T11:20:25.093Z,10.27
2023-04-04T11:23:04.744Z,10.29
2023-04-04T11:25:34.829Z,10.34
2023-04-04T11:28:09.006Z,10.41
2023-04-04T11:30:48.131Z,10.50
2023-04-04T11:33:31.806Z,10.54
2023-04-04T11:36:06.239Z,10.72
2023-04-04T11:38:36.759Z,10.58
2023-04-04T11:41:05.300Z,10.57
2023-04-04T11:43:35.912Z,10.65
2023-04-04T11:46:10.909Z,10.77
2023-04-04T11:48:43.446Z,10.90
2023-04-04T11:51:12.843Z,10.94
2023-04-04T11:53:46.068Z,10.89
2023-04-04T11:56:16.750Z,10.99
2023-04-04T11:58:53.928Z,11.06
2023-04-04T12:01:26.913Z,11.22
2023-04-04T12:03:55.035Z,11.34
2023-04-04T12:06:23.917Z,11.48
2023-04-04T12:08:51.891Z,11.62
2023-04-04T12:11:21.557Z,11.54
2023-04-04T12:13:52.136Z,11.61
2023-04-04T12:16:20.656Z,11.68
2023-04-04T12:18:48.599Z,11.77
2023-04-04T12:21:18.694Z,11.93
2023-04-04T12:23:48.484Z,11.96
2023-04-04T12:26:19.508Z,11.94
2023-04-04T12:28:55.356Z,12.01
2023-04-04T12:31:24.203Z,12.11
2023-04-04T12:33:53.348Z,12.04
2023-04-04T12:36:23.282Z,11.97
2023-04-04T12:38:59.253Z,12.14
2023-04-04T12:41:27.709Z,12.20
2023-04-04T12:44:03.778Z,12.38
2023-04-04T12:46:38.693Z,12.58
2023-04-04T12:49:09.529Z,12.74
2023-04-04T12:51:39.425Z,12.81
2023-04-04T12:54:07.823Z,12.92
2023-04-04T12:56:37.056Z,13.09
2023-04-04T12:59:10.902Z,13.24
2023-04-04T13:01:42.131Z,13.48
2023-04-04T13:04:18.353Z,13.57
2023-04-04T13:06:47.709Z,13.75
2023-04-04T13:09:20.168Z,13.79
2023-04-04T13:12:02.244Z,13.77
2023-04-04T13:14:58.566Z,13.79
2023-04-04T13:17:27.123Z,13.95
2023-04-04T13:19:55.135Z,14.19
2023-04-04T13:22:23.373Z,14.39
2023-04-04T13:24:51.501Z,14.52
2023-04-04T13:27:22.606Z,14.60
2023-04-04T13:29:51.958Z,14.47
2023-04-04T13:32:25.712Z,14.65
2023-04-04T13:34:53.900Z,14.81
2023-04-04T13:37:22.566Z,14.94
2023-04-04T13:39:50.554Z,14.98
2023-04-04T13:42:18.757Z,14.95
2023-04-04T13:44:48.394Z,15.13
2023-04-04T13:47:18.331Z,15.31
2023-04-04T13:49:46.316Z,15.39
2023-04-04T13:52:14.191Z,15.32
2023-04-04T13:54:43.627Z,15.20
2023-04-04T13:57:12.952Z,15.21
2023-04-04T13:59:44.214Z,15.50
2023-04-04T14:02:12.436Z,15.74
2023-04-04T14:04:46.261Z,15.92
2023-04-04T14:07:15.260Z,16.03
2023-04-04T14:09:43.421Z,16.11
2023-04-04T14:14:45.020Z,16.21
2023-04-04T14:17:13.527Z,16.14
2023-04-04T14:19:43.940Z,16.25
2023-04-04T14:22:13.619Z,16.43
2023-04-04T14:24:44.032Z,16.40
2023-04-04T14:27:12.552Z,16.23
2023-04-04T14:29:40.605Z,16.28
2023-04-04T14:32:08.560Z,16.50
2023-04-04T14:34:36.421Z,16.80
2023-04-04T14:37:04.602Z,17.10
2023-04-04T14:39:34.058Z,17.32
2023-04-04T14:42:04.278Z,17.39
2023-04-04T14:44:33.556Z,17.41
2023-04-04T14:47:04.307Z,17.57
2023-04-04T14:49:33.974Z,17.74
2023-04-04T14:52:02.612Z,17.58
2023-04-04T14:54:30.591Z,17.72
2023-04-04T14:57:02.117Z,17.74
2023-04-04T14:59:30.570Z,17.73
2023-04-04T15:01:59.165Z,17.71
2023-04-04T15:04:30.210Z,17.64
2023-04-04T15:07:03.034Z,17.31
2023-04-04T15:09:31.997Z,17.55
2023-04-04T15:12:02.893Z,17.75
2023-04-04T15:14:32.684Z,17.91
2023-04-04T15:17:01.876Z,17.77
2023-04-04T15:19:30.281Z,17.74
2023-04-04T15:22:03.098Z,17.65
2023-04-04T15:24:31.100Z,17.69
2023-04-04T15:26:58.942Z,17.70
2023-04-04T15:29:31.787Z,17.51
2023-04-04T15:31:59.719Z,17.09
2023-04-04T15:34:27.984Z,16.77
2023-04-04T15:36:59.547Z,16.57
2023-04-04T15:39:33.019Z,16.74
2023-04-04T15:42:04.358Z,17.20
2023-04-04T15:44:35.508Z,17.43
2023-04-04T15:47:05.705Z,17.36
2023-04-04T15:49:36.214Z,17.20
2023-04-04T15:52:04.755Z,17.07
2023-04-04T15:54:35.461Z,17.17
2023-04-04T15:57:05.060Z,16.93
2023-04-04T15:59:33.207Z,16.97
2023-04-04T16:02:05.533Z,16.73
2023-04-04T16:04:34.051Z,16.46
2023-04-04T16:07:03.831Z,16.37
2023-04-04T16:09:31.867Z,16.44
2023-04-04T16:11:59.783Z,16.31
2023-04-04T16:14:28.556Z,16.22
2023-04-04T16:16:56.824Z,16.13
2023-04-04T16:19:27.220Z,15.98
2023-04-04T16:21:56.059Z,15.69
2023-04-04T16:24:24.967Z,15.57
2023-04-04T16:26:54.096Z,15.29
2023-04-04T16:29:25.876Z,15.23
2023-04-04T16:31:55.154Z,15.10
2023-04-04T16:34:25.272Z,14.96
2023-04-04T16:36:54.711Z,14.62
2023-04-04T16:39:23.204Z,14.38
2023-04-04T16:41:52.966Z,14.06
2023-04-04T16:44:23.868Z,13.89
2023-04-04T16:46:52.418Z,13.68
2023-04-04T16:49:21.083Z,13.48
2023-04-04T16:51:52.126Z,13.37
2023-04-04T16:54:21.648Z,13.20
2023-04-04T16:56:50.729Z,12.97
2023-04-04T16:59:20.386Z,12.75
2023-04-04T17:01:50.179Z,12.67
2023-04-04T17:04:19.593Z,12.55
2023-04-04T17:06:48.564Z,12.39
2023-04-04T17:09:17.010Z,12.31
2023-04-04T17:11:46.982Z,12.26
2023-04-04T17:14:19.443Z,12.13
2023-04-04T17:16:55.819Z,11.92
2023-04-04T17:19:26.656Z,11.74
2023-04-04T17:21:58.639Z,11.63
2023-04-04T17:24:27.888Z,11.52
2023-04-04T17:26:58.148Z,11.41
2023-04-04T17:29:27.987Z,11.28
2023-04-04T17:31:57.452Z,11.20
2023-04-04T17:34:25.902Z,11.03
2023-04-04T17:36:55.046Z,10.85
2023-04-04T17:39:23.874Z,10.70
2023-04-04T17:41:53.635Z,10.54
2023-04-04T17:44:23.093Z,10.25
2023-04-04T17:46:51.288Z,10.17
2023-04-04T17:49:19.964Z,10.13
2023-04-04T17:51:50.737Z,10.12
2023-04-04T17:54:18.991Z,10.00
2023-04-04T17:56:47.250Z,9.87
2023-04-04T17:59:17.500Z,9.75
2023-04-04T18:01:47.270Z,9.68
2023-04-04T18:04:19.399Z,9.59
2023-04-04T18:06:49.331Z,9.45
2023-04-04T18:09:18.376Z,9.36
2023-04-04T18:11:46.880Z,9.29
2023-04-04T18:14:15.793Z,9.18
2023-04-04T18:16:43.761Z,9.07
2023-04-04T18:19:13.761Z,8.95
2023-04-04T18:21:42.313Z,8.86
2023-04-04T18:24:12.019Z,8.78
2023-04-04T18:26:40.545Z,8.75
2023-04-04T18:29:10.318Z,8.67
2023-04-04T18:31:38.584Z,8.58
2023-04-04T18:34:07.837Z,8.47
2023-04-04T18:36:39.720Z,8.42
2023-04-04T18:39:09.451Z,8.37
2023-04-04T18:41:38.373Z,8.29
2023-04-04T18:44:07.819Z,8.24
2023-04-04T18:46:35.947Z,8.19
2023-04-04T18:49:03.967Z,8.15
2023-04-04T18:51:31.908Z,8.05
2023-04-04T18:54:02.683Z,7.99
2023-04-04T18:56:31.375Z,7.96
2023-04-04T18:59:00.587Z,7.91
2023-04-04T19:01:35.938Z,7.82
2023-04-04T19:04:05.285Z,7.78
2023-04-04T19:06:33.823Z,7.73
2023-04-04T19:09:05.245Z,7.65
2023-04-04T19:11:34.809Z,7.61
2023-04-04T19:14:05.861Z,7.58
2023-04-04T19:16:38.076Z,7.52
2023-04-04T19:19:11.418Z,7.49
2023-04-04T19:21:39.843Z,7.43
2023-04-04T19:24:09.545Z,7.37
2023-04-04T19:26:40.514Z,7.33
2023-04-04T19:29:09.168Z,7.27
2023-04-04T19:31:39.337Z,7.21
2023-04-04T19:34:09.829Z,7.19
2023-04-04T19:36:43.017Z,7.15
2023-04-04T19:39:21.098Z,7.07
2023-04-04T19:41:52.500Z,7.02
2023-04-04T19:44:21.940Z,6.96
2023-04-04T19:46:50.345Z,6.90
2023-04-04T19:49:20.045Z,6.87
2023-04-04T19:51:55.035Z,6.83
2023-04-04T19:54:28.335Z,6.73
2023-04-04T19:57:01.087Z,6.70
2023-04-04T20:00:13.340Z,6.65
2023-04-04T20:02:51.904Z,6.60
2023-04-04T20:05:59.611Z,6.53
2023-04-04T20:08:40.339Z,6.47
2023-04-04T20:11:11.597Z,6.42
2023-04-04T20:13:44.873Z,6.36
2023-04-04T20:16:15.199Z,6.33
2023-04-04T20:18:47.447Z,6.28
2023-04-04T20:21:17.178Z,6.27
2023-04-04T20:23:48.500Z,6.22
2023-04-04T20:26:54.086Z,6.15
2023-04-04T20:29:27.722Z,6.10
2023-04-04T20:32:03.373Z,6.07
2023-04-04T20:34:44.741Z,6.05
2023-04-04T20:37:14.863Z,5.98
2023-04-04T20:39:50.779Z,5.94
2023-04-04T20:42:40.450Z,5.89
2023-04-04T20:45:42.148Z,5.84
2023-04-04T20:48:36.078Z,5.78
2023-04-04T20:51:06.379Z,5.75
2023-04-04T20:53:35.686Z,5.71
2023-04-04T20:56:11.499Z,5.71
2023-04-04T20:58:41.246Z,5.69
2023-04-04T21:01:14.219Z,5.69
2023-04-04T21:03:42.474Z,5.65
2023-04-04T21:06:13.470Z,5.64
2023-04-04T21:08:48.448Z,5.64
2023-04-04T21:11:24.867Z,5.63
2023-04-04T21:13:55.443Z,5.65
2023-04-04T21:16:27.792Z,5.62
2023-04-04T21:19:03.273Z,5.63
2023-04-04T21:21:33.662Z,5.64
2023-04-04T21:24:02.554Z,5.67
2023-04-04T21:26:34.397Z,5.67
2023-04-04T21:29:08.736Z,5.66
2023-04-04T21:31:40.875Z,5.63
2023-04-04T21:34:16.565Z,5.64
2023-04-04T21:36:48.616Z,5.60
2023-04-04T21:39:24.497Z,5.59
2023-04-04T21:41:56.691Z,5.58
2023-04-04T21:44:27.862Z,5.59
2023-04-04T21:46:56.481Z,5.59
2023-04-04T21:49:27.369Z,5.59
2023-04-04T21:51:57.883Z,5.59
2023-04-04T21:54:28.600Z,5.61
2023-04-04T21:56:57.038Z,5.62
2023-04-04T21:59:28.047Z,5.62
2023-04-04T22:01:57.931Z,5.58
2023-04-04T22:04:28.266Z,5.52
2023-04-04T22:06:58.597Z,5.51
2023-04-04T22:09:29.860Z,5.49
2023-04-04T22:12:02.926Z,5.48
2023-04-04T22:14:32.545Z,5.52
2023-04-04T22:17:03.024Z,5.54
2023-04-04T22:19:43.166Z,5.51
2023-04-04T22:22:11.819Z,5.49
2023-04-04T22:24:40.851Z,5.49
2023-04-04T22:27:14.737Z,5.49
2023-04-04T22:29:46.853Z,5.53
2023-04-04T22:32:14.820Z,5.47
2023-04-04T22:34:42.817Z,5.44
2023-04-04T22:37:12.276Z,5.46
2023-04-04T22:39:42.825Z,5.43
2023-04-04T22:42:13.387Z,5.42
2023-04-04T22:44:42.675Z,5.38
2023-04-04T22:47:15.610Z,5.38
2023-04-04T22:49:48.361Z,5.37
2023-04-04T22:52:16.749Z,5.38
2023-04-04T22:54:45.576Z,5.37
2023-04-04T22:57:15.695Z,5.36
2023-04-04T22:59:45.343Z,5.37
2023-04-04T23:02:14.789Z,5.37
2023-04-04T23:04:43.341Z,5.37
2023-04-04T23:07:13.104Z,5.40
2023-04-04T23:09:43.981Z,5.40
2023-04-04T23:12:14.717Z,5.36
2023-04-04T23:14:44.905Z,5.36
2023-04-04T23:17:17.070Z,5.32
2023-04-04T23:19:46.315Z,5.22
2023-04-04T23:22:14.402Z,5.16
2023-04-04T23:24:44.809Z,5.09
2023-04-04T23:27:15.618Z,5.11
2023-04-04T23:29:45.375Z,5.05
2023-04-04T23:32:14.193Z,5.07
2023-04-04T23:34:44.739Z,5.11
2023-04-04T23:37:14.805Z,5.10
2023-04-04T23:39:50.290Z,5.13
2023-04-04T23:42:18.828Z,5.13
2023-04-04T23:44:47.903Z,5.10
2023-04-04T23:47:18.979Z,5.11
2023-04-04T23:49:51.984Z,5.16
2023-04-04T23:52:22.457Z,5.13
2023-04-04T23:54:50.573Z,5.14
2023-04-04T23:57:20.749Z,5.18
2023-04-04T23:59:48.759Z,5.15
